Time;durP1;ratioP1;P1;durP2;ratioP2;P2;SDS_P1;SDS_P2;PMS_P1;PMS_P2;Temp;Humidity;BMP_temperature;BMP_pressure;BME280_temperature;BME280_humidity;BME280_pressure;Samples;Min_cycle;Max_cycle;Signal;HPM_P1;HPM_P2
2022/04/10 00:01:54;;;;;;;;;;;;;;;;;;5056724;28;29709;-87
2022/04/10 00:04:20;;;;;;;;;;;;;;;;;;5055149;28;29775;-87
2022/04/10 00:06:45;;;;;;;;;;;;;;;;;;5056841;28;28366;-87
2022/04/10 00:09:13;;;;;;;;;;;;;;;;;;5055348;28;28386;-87
2022/04/10 00:11:38;;;;;;;;;;;;;;;;;;5054963;28;28462;-87
2022/04/10 00:14:03;;;;;;;;;;;;;;;;;;5056529;28;28303;-87
2022/04/10 00:16:28;;;;;;;;;;;;;;;;;;5056538;28;28320;-87
2022/04/10 00:18:54;;;;;;;;;;;;;;;;;;5056470;28;28370;-86
2022/04/10 00:21:19;;;;;;;;;;;;;;;;;;5056210;28;29526;-87
2022/04/10 00:23:45;;;;;;;;;;;;;;;;;;5056335;28;28255;-86
2022/04/10 00:26:12;;;;;;;;;;;;;;;;;;5056139;28;28266;-87
2022/04/10 00:28:37;;;;;;;;;;;;;;;;;;5056086;28;28435;-87
2022/04/10 00:31:02;;;;;;;;;;;;;;;;;;5056002;28;28896;-86
2022/04/10 00:33:27;;;;;;;;;;;;;;;;;;5055917;28;28272;-86
2022/04/10 00:35:52;;;;;;;;;;;;;;;;;;5056129;28;28532;-86
2022/04/10 00:38:17;;;;;;;;;;;;;;;;;;5056012;28;28494;-86
2022/04/10 00:40:42;;;;;;;;;;;;;;;;;;5055925;28;28361;-87
2022/04/10 00:43:08;;;;;;;;;;;;;;;;;;5055937;28;28347;-86
2022/04/10 00:45:33;;;;;;;;;;;;;;;;;;5055929;28;28257;-87
2022/04/10 00:47:58;;;;;;;;;;;;;;;;;;5056143;28;28257;-87
2022/04/10 00:50:23;;;;;;;;;;;;;;;;;;5055571;28;28411;-86
2022/04/10 00:52:48;;;;;;;;;;;;;;;;;;5055766;28;28252;-87
2022/04/10 00:55:13;;;;;;;;;;;;;;;;;;5055823;28;28441;-87
2022/04/10 00:57:39;;;;;;;;;;;;;;;;;;5055812;28;28238;-86
2022/04/10 01:00:04;;;;;;;;;;;;;;;;;;5055768;28;28428;-86
2022/04/10 01:02:29;;;;;;;;;;;;;;;;;;5055684;28;28319;-86
2022/04/10 01:04:54;;;;;;;;;;;;;;;;;;5055630;28;28621;-86
2022/04/10 01:07:19;;;;;;;;;;;;;;;;;;5055810;28;28293;-86
2022/04/10 01:09:44;;;;;;;;;;;;;;;;;;5055361;28;28857;-86
2022/04/10 01:12:09;;;;;;;;;;;;;;;;;;5055542;28;28461;-86
2022/04/10 01:14:34;;;;;;;;;;;;;;;;;;5055560;28;28409;-86
2022/04/10 01:16:59;;;;;;;;;;;;;;;;;;5055555;28;28373;-86
2022/04/10 01:19:25;;;;;;;;;;;;;;;;;;5055347;28;28649;-85
2022/04/10 01:21:50;;;;;;;;;;;;;;;;;;5055128;28;28473;-86
2022/04/10 01:24:15;;;;;;;;;;;;;;;;;;5055464;28;28511;-86
2022/04/10 01:26:40;;;;;;;;;;;;;;;;;;5055367;28;28445;-86
2022/04/10 01:29:05;;;;;;;;;;;;;;;;;;5055050;28;28457;-86
2022/04/10 01:31:30;;;;;;;;;;;;;;;;;;5055007;28;28347;-86
2022/04/10 01:33:55;;;;;;;;;;;;;;;;;;5053954;28;28329;-85
2022/04/10 01:36:21;;;;;;;;;;;;;;;;;;5055454;28;28406;-86
2022/04/10 01:38:46;;;;;;;;;;;;;;;;;;5054849;28;28347;-85
2022/04/10 01:41:11;;;;;;;;;;;;;;;;;;5055082;28;28391;-85
2022/04/10 01:43:36;;;;;;;;;;;;;;;;;;5054971;28;28315;-86
2022/04/10 01:46:01;;;;;;;;;;;;;;;;;;5055017;28;28339;-87
2022/04/10 01:48:26;;;;;;;;;;;;;;;;;;5055085;28;28540;-87
2022/04/10 01:50:51;;;;;;;;;;;;;;;;;;5054619;28;28423;-86
2022/04/10 01:53:16;;;;;;;;;;;;;;;;;;5055287;28;28387;-87
2022/04/10 01:55:42;;;;;;;;;;;;;;;;;;5054795;28;28370;-86
2022/04/10 01:58:07;;;;;;;;;;;;;;;;;;5054761;28;28437;-86
2022/04/10 02:00:32;;;;;;;;;;;;;;;;;;5054879;28;28386;-87
2022/04/10 02:02:57;;;;;;;;;;;;;;;;;;5054696;28;28340;-87
2022/04/10 02:05:22;;;;;;;;;;;;;;;;;;5055113;28;28403;-86
2022/04/10 02:07:47;;;;;;;;;;;;;;;;;;5054527;28;28415;-86
2022/04/10 02:10:12;;;;;;;;;;;;;;;;;;5054790;28;28548;-87
2022/04/10 02:12:37;;;;;;;;;;;;;;;;;;5053331;28;27814;-86
2022/04/10 02:15:02;;;;;;;;;;;;;;;;;;5054877;28;28443;-86
2022/04/10 02:17:27;;;;;;;;;;;;;;;;;;5054754;28;28536;-86
2022/04/10 02:19:53;;;;;;;;;;;;;;;;;;5054367;28;28481;-86
2022/04/10 02:22:18;;;;;;;;;;;;;;;;;;5054886;28;28401;-87
2022/04/10 02:24:43;;;;;;;;;;;;;;;;;;5054649;28;28478;-88
2022/04/10 02:27:08;;;;;;;;;;;;;;;;;;5054395;28;29679;-86
2022/04/10 02:29:33;;;;;;;;;;;;;;;;;;5054551;28;28351;-87
2022/04/10 02:31:58;;;;;;;;;;;;;;;;;;5056222;28;28525;-87
2022/04/10 02:34:24;;;;;;;;;;;;;;;;;;5058263;28;28596;-86
2022/04/10 02:36:49;;;;;;;;;;;;;;;;;;5057951;28;28368;-86
2022/04/10 02:39:14;;;;;;;;;;;;;;;;;;5057643;28;28268;-86
2022/04/10 02:41:39;;;;;;;;;;;;;;;;;;5057937;28;28244;-85
2022/04/10 02:44:04;;;;;;;;;;;;;;;;;;5057832;28;28249;-86
2022/04/10 02:46:29;;;;;;;;;;;;;;;;;;5057914;28;29161;-86
2022/04/10 02:48:55;;;;;;;;;;;;;;;;;;5057729;28;28245;-85
2022/04/10 02:51:20;;;;;;;;;;;;;;;;;;5057674;28;28292;-85
2022/04/10 02:53:45;;;;;;;;;;;;;;;;;;5057947;28;28249;-85
2022/04/10 02:56:10;;;;;;;;;;;;;;;;;;5055863;28;29124;-86
2022/04/10 02:58:35;;;;;;;;;;;;;;;;;;5056839;28;28324;-87
2022/04/10 03:01:00;;;;;;;;;;;;;;;;;;5057687;28;28260;-86
2022/04/10 03:03:25;;;;;;;;;;;;;;;;;;5056411;28;28419;-86
2022/04/10 03:05:50;;;;;;;;;;;;;;;;;;5057501;28;28469;-86
2022/04/10 03:08:17;;;;;;;;;;;;;;;;;;5057452;28;28283;-87
2022/04/10 03:10:42;;;;;;;;;;;;;;;;;;5057487;28;28259;-86
2022/04/10 03:13:08;;;;;;;;;;;;;;;;;;5057480;28;28568;-86
2022/04/10 03:15:33;;;;;;;;;;;;;;;;;;5057547;28;29133;-87
2022/04/10 03:17:58;;;;;;;;;;;;;;;;;;5057017;28;28515;-86
2022/04/10 03:20:23;;;;;;;;;;;;;;;;;;5057180;28;28281;-86
2022/04/10 03:22:48;;;;;;;;;;;;;;;;;;5057664;28;28502;-87
2022/04/10 03:25:13;;;;;;;;;;;;;;;;;;5057495;28;28724;-87
2022/04/10 03:27:38;;;;;;;;;;;;;;;;;;5057091;28;28355;-87
2022/04/10 03:30:04;;;;;;;;;;;;;;;;;;5057008;28;28379;-86
2022/04/10 03:32:29;;;;;;;;;;;;;;;;;;5057020;28;28383;-88
2022/04/10 03:34:54;;;;;;;;;;;;;;;;;;5055774;28;29823;-87
2022/04/10 03:37:19;;;;;;;;;;;;;;;;;;5056949;28;28348;-87
2022/04/10 03:39:44;;;;;;;;;;;;;;;;;;5057034;28;28418;-86
2022/04/10 03:42:09;;;;;;;;;;;;;;;;;;5056367;28;28482;-87
2022/04/10 03:44:34;;;;;;;;;;;;;;;;;;5056056;28;29484;-87
2022/04/10 03:47:00;;;;;;;;;;;;;;;;;;5057010;28;28451;-87
2022/04/10 03:49:25;;;;;;;;;;;;;;;;;;5056879;28;28386;-87
2022/04/10 03:51:50;;;;;;;;;;;;;;;;;;5056807;28;28344;-87
2022/04/10 03:54:15;;;;;;;;;;;;;;;;;;5056750;28;29627;-87
2022/04/10 03:56:40;;;;;;;;;;;;;;;;;;5056514;28;27839;-87
2022/04/10 03:59:05;;;;;;;;;;;;;;;;;;5056798;28;27852;-87
2022/04/10 04:01:30;;;;;;;;;;;;;;;;;;5056569;28;28417;-87
2022/04/10 04:03:55;;;;;;;;;;;;;;;;;;5055362;28;30997;-88
2022/04/10 04:06:20;;;;;;;;;;;;;;;;;;5056751;28;28294;-87
2022/04/10 04:08:46;;;;;;;;;;;;;;;;;;5056486;28;28398;-87
2022/04/10 04:11:11;;;;;;;;;;;;;;;;;;5056422;28;28437;-88
2022/04/10 04:13:36;;;;;;;;;;;;;;;;;;5056277;28;29503;-87
2022/04/10 04:16:01;;;;;;;;;;;;;;;;;;5056596;28;28320;-88
2022/04/10 04:18:26;;;;;;;;;;;;;;;;;;5056671;28;28394;-88
2022/04/10 04:20:51;;;;;;;;;;;;;;;;;;5056642;28;28507;-88
2022/04/10 04:23:18;;;;;;;;;;;;;;;;;;5056067;28;28488;-88
2022/04/10 04:25:43;;;;;;;;;;;;;;;;;;5056034;28;28477;-88
2022/04/10 04:28:08;;;;;;;;;;;;;;;;;;5056184;28;28360;-87
2022/04/10 04:30:33;;;;;;;;;;;;;;;;;;5056100;28;28505;-88
2022/04/10 04:32:58;;;;;;;;;;;;;;;;;;5056163;28;28404;-87
2022/04/10 04:35:23;;;;;;;;;;;;;;;;;;5056082;28;28398;-88
2022/04/10 04:37:49;;;;;;;;;;;;;;;;;;5056205;28;28394;-87
2022/04/10 04:40:15;;;;;;;;;;;;;;;;;;5056226;28;28691;-88
2022/04/10 04:42:40;;;;;;;;;;;;;;;;;;5055741;28;28413;-87
2022/04/10 04:45:05;;;;;;;;;;;;;;;;;;5055894;28;28415;-87
2022/04/10 04:47:30;;;;;;;;;;;;;;;;;;5054522;28;28588;-86
2022/04/10 04:49:55;;;;;;;;;;;;;;;;;;5056087;28;28429;-87
2022/04/10 04:52:21;;;;;;;;;;;;;;;;;;5055897;28;29553;-87
2022/04/10 04:54:47;;;;;;;;;;;;;;;;;;5055219;28;28070;-87
2022/04/10 04:57:12;;;;;;;;;;;;;;;;;;5055772;28;28268;-87
2022/04/10 04:59:37;;;;;;;;;;;;;;;;;;5056038;28;28296;-87
2022/04/10 05:02:02;;;;;;;;;;;;;;;;;;5055430;28;28253;-87
2022/04/10 05:04:27;;;;;;;;;;;;;;;;;;5055846;28;28315;-88
2022/04/10 05:06:52;;;;;;;;;;;;;;;;;;5055738;28;28319;-88
2022/04/10 05:09:17;;;;;;;;;;;;;;;;;;5055868;28;28559;-88
2022/04/10 05:11:42;;;;;;;;;;;;;;;;;;5053725;28;28579;-88
2022/04/10 05:14:07;;;;;;;;;;;;;;;;;;5055784;28;28289;-89
2022/04/10 05:16:32;;;;;;;;;;;;;;;;;;5055233;28;28397;-88
2022/04/10 05:18:58;;;;;;;;;;;;;;;;;;5055772;28;28315;-88
2022/04/10 05:21:23;;;;;;;;;;;;;;;;;;5055417;28;28436;-88
2022/04/10 05:23:48;;;;;;;;;;;;;;;;;;5055365;28;28300;-87
2022/04/10 05:26:13;;;;;;;;;;;;;;;;;;5055894;28;28347;-89
2022/04/10 05:28:38;;;;;;;;;;;;;;;;;;5055789;28;28564;-88
2022/04/10 05:31:03;;;;;;;;;;;;;;;;;;5055129;28;28363;-87
2022/04/10 05:33:29;;;;;;;;;;;;;;;;;;5055256;28;28333;-88
2022/04/10 05:35:55;;;;;;;;;;;;;;;;;;5056264;28;28233;-90
2022/04/10 05:38:20;;;;;;;;;;;;;;;;;;5054281;28;28522;-88
2022/04/10 05:40:52;;;;;;;;;;;;;;;;;;5054788;28;28497;-88
2022/04/10 05:43:17;;;;;;;;;;;;;;;;;;5053771;28;28330;-89
2022/04/10 05:45:42;;;;;;;;;;;;;;;;;;5053764;28;28396;-88
2022/04/10 05:48:07;;;;;;;;;;;;;;;;;;5055227;28;27784;-88
2022/04/10 05:50:32;;;;;;;;;;;;;;;;;;5053711;28;28504;-89
2022/04/10 05:52:57;;;;;;;;;;;;;;;;;;5053573;28;28269;-89
2022/04/10 05:55:24;;;;;;;;;;;;;;;;;;5054981;28;28492;-88
2022/04/10 05:57:49;;;;;;;;;;;;;;;;;;5055004;28;28496;-88
2022/04/10 06:00:14;;;;;;;;;;;;;;;;;;5054783;28;28496;-86
2022/04/10 06:02:40;;;;;;;;;;;;;;;;;;5054807;28;28394;-87
2022/04/10 06:05:05;;;;;;;;;;;;;;;;;;5055040;28;28413;-86
2022/04/10 06:07:30;;;;;;;;;;;;;;;;;;5057713;28;28340;-88
2022/04/10 06:09:55;;;;;;;;;;;;;;;;;;5058390;28;28634;-88
2022/04/10 06:12:20;;;;;;;;;;;;;;;;;;5058065;28;28422;-88
2022/04/10 06:14:45;;;;;;;;;;;;;;;;;;5056917;28;28336;-87
2022/04/10 06:17:10;;;;;;;;;;;;;;;;;;5058360;28;28482;-88
2022/04/10 06:19:35;;;;;;;;;;;;;;;;;;5058033;28;28446;-87
2022/04/10 06:22:00;;;;;;;;;;;;;;;;;;5058304;28;28497;-87
2022/04/10 06:24:27;;;;;;;;;;;;;;;;;;5057989;28;28411;-87
2022/04/10 06:26:52;;;;;;;;;;;;;;;;;;5058403;28;28442;-87
2022/04/10 06:29:17;;;;;;;;;;;;;;;;;;5057874;28;28440;-87
2022/04/10 06:31:43;;;;;;;;;;;;;;;;;;5057831;28;28402;-87
2022/04/10 06:34:08;;;;;;;;;;;;;;;;;;5058285;28;28319;-87
2022/04/10 06:36:33;;;;;;;;;;;;;;;;;;5058228;28;28527;-88
2022/04/10 06:38:58;;;;;;;;;;;;;;;;;;5058052;28;28444;-87
2022/04/10 06:41:23;;;;;;;;;;;;;;;;;;5057853;28;28505;-87
2022/04/10 06:43:48;;;;;;;;;;;;;;;;;;5056568;28;28435;-88
2022/04/10 06:46:13;;;;;;;;;;;;;;;;;;5058037;28;28375;-87
2022/04/10 06:48:39;;;;;;;;;;;;;;;;;;5057652;28;28866;-87
2022/04/10 06:51:04;;;;;;;;;;;;;;;;;;5057749;28;28407;-87
2022/04/10 06:53:29;;;;;;;;;;;;;;;;;;5058364;28;28505;-87
2022/04/10 06:55:54;;;;;;;;;;;;;;;;;;5057493;28;28395;-87
2022/04/10 06:58:22;;;;;;;;;;;;;;;;;;5057360;28;28395;-87
2022/04/10 07:00:47;;;;;;;;;;;;;;;;;;5057288;28;28394;-87
2022/04/10 07:03:12;;;;;;;;;;;;;;;;;;5057491;28;28416;-88
2022/04/10 07:05:39;;;;;;;;;;;;;;;;;;5057197;28;28304;-90
2022/04/10 07:08:04;;;;;;;;;;;;;;;;;;5057253;28;28406;-89
2022/04/10 07:10:29;;;;;;;;;;;;;;;;;;5058253;28;28542;-90
2022/04/10 07:12:54;;;;;;;;;;;;;;;;;;5056504;28;28495;-91
2022/04/10 07:15:19;;;;;;;;;;;;;;;;;;5058882;28;28501;-90
2022/04/10 07:17:44;;;;;;;;;;;;;;;;;;5057174;28;28496;-88
2022/04/10 07:20:10;;;;;;;;;;;;;;;;;;5057577;28;28478;-88
2022/04/10 07:25:19;;;;;;;;;;;;;;;;;;5057253;28;28252;-85
2022/04/10 07:27:44;;;;;;;;;;;;;;;;;;5056583;28;28418;-83
2022/04/10 07:30:09;;;;;;;;;;;;;;;;;;5056938;28;28332;-83
2022/04/10 07:32:34;;;;;;;;;;;;;;;;;;5056896;28;28436;-83
2022/04/10 07:34:59;;;;;;;;;;;;;;;;;;5057132;28;28517;-83
2022/04/10 07:37:24;;;;;;;;;;;;;;;;;;5055319;28;28502;-84
2022/04/10 07:39:49;;;;;;;;;;;;;;;;;;5056839;28;28511;-84
2022/04/10 07:42:15;;;;;;;;;;;;;;;;;;5056729;28;28465;-83
2022/04/10 07:44:40;;;;;;;;;;;;;;;;;;5056917;28;28518;-85
2022/04/10 07:49:49;;;;;;;;;;;;;;;;;;5056902;28;28445;-83
2022/04/10 07:52:15;;;;;;;;;;;;;;;;;;5056752;28;28300;-84
2022/04/10 07:54:40;;;;;;;;;;;;;;;;;;5057068;28;28444;-84
2022/04/10 07:57:05;;;;;;;;;;;;;;;;;;5056501;28;29554;-83
2022/04/10 07:59:30;;;;;;;;;;;;;;;;;;5056773;28;28492;-86
2022/04/10 08:01:56;;;;;;;;;;;;;;;;;;5056778;28;28598;-86
2022/04/10 08:04:21;;;;;;;;;;;;;;;;;;5056740;28;28529;-84
2022/04/10 08:06:46;;;;;;;;;;;;;;;;;;5056424;28;28536;-83
2022/04/10 08:09:11;;;;;;;;;;;;;;;;;;5056268;28;28503;-84
2022/04/10 08:11:36;;;;;;;;;;;;;;;;;;5056430;28;28485;-87
2022/04/10 08:14:01;;;;;;;;;;;;;;;;;;5056583;28;28335;-90
2022/04/10 08:16:26;;;;;;;;;;;;;;;;;;5054879;28;29829;-86
2022/04/10 08:18:52;;;;;;;;;;;;;;;;;;5056800;28;28406;-87
2022/04/10 08:21:18;;;;;;;;;;;;;;;;;;5056131;28;28240;-87
2022/04/10 08:23:43;;;;;;;;;;;;;;;;;;5056570;28;28340;-88
2022/04/10 08:26:08;;;;;;;;;;;;;;;;;;5061788;28;28440;-87
2022/04/10 08:28:36;;;;;;;;;;;;;;;;;;5058471;28;28458;-88
2022/04/10 08:31:01;;;;;;;;;;;;;;;;;;5056323;28;28314;-89
2022/04/10 08:33:26;;;;;;;;;;;;;;;;;;5056369;28;28536;-87
2022/04/10 08:35:51;;;;;;;;;;;;;;;;;;5056185;28;29436;-88
2022/04/10 08:38:16;;;;;;;;;;;;;;;;;;5056135;28;28434;-87
2022/04/10 08:40:42;;;;;;;;;;;;;;;;;;5056106;28;28422;-87
2022/04/10 08:43:07;;;;;;;;;;;;;;;;;;5056214;28;28505;-87
2022/04/10 08:45:32;;;;;;;;;;;;;;;;;;5055808;28;28330;-88
2022/04/10 08:47:57;;;;;;;;;;;;;;;;;;5056057;28;28307;-88
2022/04/10 08:50:26;;;;;;;;;;;;;;;;;;5056910;28;28374;-89
2022/04/10 08:52:55;;;;;;;;;;;;;;;;;;5054840;28;28431;-89
2022/04/10 08:55:20;;;;;;;;;;;;;;;;;;5055899;28;28482;-88
2022/04/10 08:57:45;;;;;;;;;;;;;;;;;;5054363;28;28391;-89
2022/04/10 09:00:10;;;;;;;;;;;;;;;;;;5058048;28;28421;-83
2022/04/10 09:02:36;;;;;;;;;;;;;;;;;;5057894;28;35114;-94
2022/04/10 09:05:01;;;;;;;;;;;;;;;;;;5054944;28;30022;-93
2022/04/10 09:07:26;;;;;;;;;;;;;;;;;;5055826;28;28304;-92
2022/04/10 09:09:51;;;;;;;;;;;;;;;;;;5055149;28;27819;-88
2022/04/10 09:12:17;;;;;;;;;;;;;;;;;;5054131;28;27920;-88
2022/04/10 09:14:42;;;;;;;;;;;;;;;;;;5055288;28;28702;-88
2022/04/10 09:17:11;;;;;;;;;;;;;;;;;;5056621;28;28431;-94
2022/04/10 09:19:39;;;;;;;;;;;;;;;;;;5054892;28;28506;-92
2022/04/10 09:22:04;;;;;;;;;;;;;;;;;;5055688;28;27915;-94
2022/04/10 09:24:29;;;;;;;;;;;;;;;;;;5054709;28;29707;-92
2022/04/10 09:26:55;;;;;;;;;;;;;;;;;;5055126;28;28285;-91
2022/04/10 09:29:20;;;;;;;;;;;;;;;;;;5056268;28;28430;-87
2022/04/10 09:31:45;;;;;;;;;;;;;;;;;;5058365;28;28568;-95
2022/04/10 09:34:13;;;;;;;;;;;;;;;;;;5064586;28;28776;-93
2022/04/10 09:41:56;;;;;;;;;;;;;;;;;;5075884;22;28367;-84
2022/04/10 09:44:21;;;;;;;;;;;;;;;;;;5034968;28;28416;-83
2022/04/10 09:46:46;;;;;;;;;;;;;;;;;;5017251;28;28566;-84
2022/04/10 09:49:12;;;;;;;;;;;;;;;;;;5034902;28;28490;-83
2022/04/10 09:51:37;;;;;;;;;;;;;;;;;;5035009;28;28486;-83
2022/04/10 09:54:03;;;;;;;;;;;;;;;;;;5035137;28;28425;-85
2022/04/10 09:56:29;;;;;;;;;;;;;;;;;;5034828;28;28483;-84
2022/04/10 09:58:54;;;;;;;;;;;;;;;;;;5035027;28;28388;-84
2022/04/10 10:01:20;;;;;;;;;;;;;;;;;;5034940;28;28408;-86
2022/04/10 10:03:46;;;;;;;;;;;;;;;;;;5034527;28;28811;-83
2022/04/10 10:06:12;;;;;;;;;;;;;;;;;;5017065;28;28318;-85
2022/04/10 10:08:37;;;;;;;;;;;;;;;;;;5034479;28;28404;-86
2022/04/10 10:11:02;;;;;;;;;;;;;;;;;;5034812;28;27794;-84
2022/04/10 10:13:28;;;;;;;;;;;;;;;;;;5028914;28;29442;-84
2022/04/10 10:15:53;;;;;;;;;;;;;;;;;;5034142;28;28372;-86
2022/04/10 10:18:18;;;;;;;;;;;;;;;;;;5034512;28;28449;-90
2022/04/10 10:20:44;;;;;;;;;;;;;;;;;;5034506;28;28287;-87
2022/04/10 10:23:09;;;;;;;;;;;;;;;;;;5034280;28;29346;-84
2022/04/10 10:25:34;;;;;;;;;;;;;;;;;;5034265;28;28249;-84
2022/04/10 10:27:59;;;;;;;;;;;;;;;;;;5034178;28;27831;-84
2022/04/10 10:30:24;;;;;;;;;;;;;;;;;;5034531;28;28226;-85
2022/04/10 10:32:49;;;;;;;;;;;;;;;;;;5034261;28;28582;-85
2022/04/10 10:35:14;;;;;;;;;;;;;;;;;;5034678;28;28276;-85
2022/04/10 10:37:39;;;;;;;;;;;;;;;;;;5034409;28;28295;-84
2022/04/10 10:40:05;;;;;;;;;;;;;;;;;;5034392;28;28249;-85
2022/04/10 10:42:30;;;;;;;;;;;;;;;;;;5034074;28;28253;-82
2022/04/10 10:44:55;;;;;;;;;;;;;;;;;;5033582;28;28455;-83
2022/04/10 10:47:22;;;;;;;;;;;;;;;;;;5034314;28;28352;-83
2022/04/10 10:49:47;;;;;;;;;;;;;;;;;;5034241;28;28452;-84
2022/04/10 10:52:13;;;;;;;;;;;;;;;;;;5034873;28;28470;-83
2022/04/10 10:54:38;;;;;;;;;;;;;;;;;;5043109;28;28419;-84
2022/04/10 10:57:03;;;;;;;;;;;;;;;;;;5018550;28;28433;-84
2022/04/10 10:59:28;;;;;;;;;;;;;;;;;;5037706;28;28444;-84
2022/04/10 11:01:53;;;;;;;;;;;;;;;;;;5037933;28;28466;-84
2022/04/10 11:04:20;;;;;;;;;;;;;;;;;;5037568;28;28416;-83
2022/04/10 11:06:45;;;;;;;;;;;;;;;;;;5042862;28;28422;-93
2022/04/10 11:09:10;;;;;;;;;;;;;;;;;;5026505;28;28395;-92
2022/04/10 11:11:35;;;;;;;;;;;;;;;;;;5024502;28;29904;-90
2022/04/10 11:14:00;;;;;;;;;;;;;;;;;;5039632;28;28613;-91
2022/04/10 11:16:25;;;;;;;;;;;;;;;;;;5023364;28;27861;-93
2022/04/10 11:18:50;;;;;;;;;;;;;;;;;;5023226;28;28408;-91
2022/04/10 11:21:16;;;;;;;;;;;;;;;;;;5041766;28;29355;-94
2022/04/10 11:23:50;;;;;;;;;;;;;;;;;;5041068;28;28380;-94
2022/04/10 11:26:15;;;;;;;;;;;;;;;;;;5038431;28;28334;-89
2022/04/10 11:28:40;;;;;;;;;;;;;;;;;;5037190;28;28392;-89
2022/04/10 11:31:05;;;;;;;;;;;;;;;;;;5037474;28;28330;-90
2022/04/10 11:33:30;;;;;;;;;;;;;;;;;;5037321;28;28329;-90
2022/04/10 11:35:55;;;;;;;;;;;;;;;;;;5037249;28;28463;-93
2022/04/10 11:38:20;;;;;;;;;;;;;;;;;;5039228;28;28476;-90
2022/04/10 11:40:47;;;;;;;;;;;;;;;;;;5037356;28;28387;-89
2022/04/10 11:43:13;;;;;;;;;;;;;;;;;;5036790;28;28392;-91
2022/04/10 11:45:38;;;;;;;;;;;;;;;;;;5019492;28;28502;-86
2022/04/10 11:48:07;;;;;;;;;;;;;;;;;;5041522;28;28617;-93
2022/04/10 11:50:34;;;;;;;;;;;;;;;;;;5018390;28;30265;-94
2022/04/10 11:52:59;;;;;;;;;;;;;;;;;;5016032;28;28731;-86
2022/04/10 11:55:24;;;;;;;;;;;;;;;;;;5037577;28;28486;-90
2022/04/10 11:57:49;;;;;;;;;;;;;;;;;;5031606;28;28400;-89
2022/04/10 12:00:15;;;;;;;;;;;;;;;;;;5035987;28;28499;-85
2022/04/10 12:02:40;;;;;;;;;;;;;;;;;;5035605;28;28402;-86
2022/04/10 12:05:05;;;;;;;;;;;;;;;;;;5032182;28;28620;-86
2022/04/10 12:07:30;;;;;;;;;;;;;;;;;;5030430;28;28480;-86
2022/04/10 12:09:55;;;;;;;;;;;;;;;;;;5026187;28;28455;-85
2022/04/10 12:12:20;;;;;;;;;;;;;;;;;;5021450;28;28270;-85
2022/04/10 12:17:21;;;;;;;;;;;;;;;;;;5245861;22;28987;-95
2022/04/10 12:19:46;;;;;;;;;;;;;;;;;;5033515;28;28561;-93
2022/04/10 12:22:12;;;;;;;;;;;;;;;;;;5029847;28;28444;-94
2022/04/10 12:24:37;;;;;;;;;;;;;;;;;;5027925;28;28566;-95
2022/04/10 12:27:02;;;;;;;;;;;;;;;;;;5031390;28;27857;-94
2022/04/10 12:29:27;;;;;;;;;;;;;;;;;;5027960;28;28217;-96
2022/04/10 12:39:37;;;;;;;;;;;;;;;;;;5971760;22;29062;-95
2022/04/10 12:42:03;;;;;;;;;;;;;;;;;;5036901;28;28463;-84
2022/04/10 12:44:28;;;;;;;;;;;;;;;;;;5052276;28;28560;-84
2022/04/10 12:46:54;;;;;;;;;;;;;;;;;;5032244;28;28534;-88
2022/04/10 12:49:19;;;;;;;;;;;;;;;;;;5054068;28;29009;-89
2022/04/10 12:51:44;;;;;;;;;;;;;;;;;;5035053;28;28527;-86
2022/04/10 12:54:09;;;;;;;;;;;;;;;;;;5046702;28;28491;-86
2022/04/10 12:56:35;;;;;;;;;;;;;;;;;;5020399;28;28642;-88
2022/04/10 12:59:00;;;;;;;;;;;;;;;;;;5024612;28;28511;-89
2022/04/10 13:01:25;;;;;;;;;;;;;;;;;;5035176;28;28464;-89
2022/04/10 13:03:51;;;;;;;;;;;;;;;;;;5036290;28;28522;-91
2022/04/10 13:06:16;;;;;;;;;;;;;;;;;;5037550;28;28440;-90
2022/04/10 13:08:42;;;;;;;;;;;;;;;;;;5054782;28;28319;-89
2022/04/10 13:11:07;;;;;;;;;;;;;;;;;;5049909;28;28400;-91
2022/04/10 13:13:32;;;;;;;;;;;;;;;;;;5024798;28;28313;-92
2022/04/10 13:15:57;;;;;;;;;;;;;;;;;;5055389;28;28432;-88
2022/04/10 13:18:22;;;;;;;;;;;;;;;;;;5055398;28;28345;-92
2022/04/10 13:20:47;;;;;;;;;;;;;;;;;;5036910;28;28386;-89
2022/04/10 13:23:13;;;;;;;;;;;;;;;;;;5055982;28;28335;-90
2022/04/10 13:25:38;;;;;;;;;;;;;;;;;;5051434;28;28563;-89
2022/04/10 13:28:03;;;;;;;;;;;;;;;;;;5056051;28;28520;-93
2022/04/10 13:30:29;;;;;;;;;;;;;;;;;;5041212;28;28337;-93
2022/04/10 13:32:55;;;;;;;;;;;;;;;;;;5057097;28;28901;-95
2022/04/10 13:35:20;;;;;;;;;;;;;;;;;;5053733;28;28400;-87
2022/04/10 13:37:45;;;;;;;;;;;;;;;;;;5061959;28;28328;-94
2022/04/10 13:40:10;;;;;;;;;;;;;;;;;;5037273;28;29010;-92
2022/04/10 13:42:35;;;;;;;;;;;;;;;;;;5051595;28;28581;-94
2022/04/10 13:45:00;;;;;;;;;;;;;;;;;;5043719;28;28410;-92
2022/04/10 13:47:25;;;;;;;;;;;;;;;;;;5035524;28;28557;-92
2022/04/10 13:49:50;;;;;;;;;;;;;;;;;;5035399;28;28444;-94
2022/04/10 13:52:15;;;;;;;;;;;;;;;;;;5035556;28;28324;-93
2022/04/10 13:54:41;;;;;;;;;;;;;;;;;;5035621;28;28380;-93
2022/04/10 13:57:06;;;;;;;;;;;;;;;;;;5035328;28;28459;-94
2022/04/10 13:59:31;;;;;;;;;;;;;;;;;;5035185;28;28416;-93
2022/04/10 14:01:56;;;;;;;;;;;;;;;;;;5035013;28;28463;-92
2022/04/10 14:04:21;;;;;;;;;;;;;;;;;;5035815;28;28440;-92
2022/04/10 14:06:46;;;;;;;;;;;;;;;;;;5034966;28;28643;-94
2022/04/10 14:09:11;;;;;;;;;;;;;;;;;;5035212;28;28432;-93
2022/04/10 14:11:36;;;;;;;;;;;;;;;;;;5035309;28;28374;-91
2022/04/10 14:14:01;;;;;;;;;;;;;;;;;;5035577;28;28329;-92
2022/04/10 14:16:26;;;;;;;;;;;;;;;;;;5035162;28;28450;-94
2022/04/10 14:18:52;;;;;;;;;;;;;;;;;;5035167;28;28411;-91
2022/04/10 14:21:17;;;;;;;;;;;;;;;;;;5035649;28;28422;-93
2022/04/10 14:23:42;;;;;;;;;;;;;;;;;;5017774;28;28373;-92
2022/04/10 14:26:07;;;;;;;;;;;;;;;;;;5035340;28;28309;-95
2022/04/10 14:28:32;;;;;;;;;;;;;;;;;;5020805;28;28546;-93
2022/04/10 14:30:57;;;;;;;;;;;;;;;;;;5038865;28;28518;-94
2022/04/10 14:33:22;;;;;;;;;;;;;;;;;;5026405;28;28548;-94
2022/04/10 14:35:47;;;;;;;;;;;;;;;;;;5040383;28;28546;-93
2022/04/10 14:38:13;;;;;;;;;;;;;;;;;;5039940;28;28394;-96
2022/04/10 14:40:38;;;;;;;;;;;;;;;;;;5040184;28;27722;-94
2022/04/10 14:43:03;;;;;;;;;;;;;;;;;;5040369;28;28463;-94
2022/04/10 14:45:28;;;;;;;;;;;;;;;;;;5022281;28;30277;-94
2022/04/10 14:47:54;;;;;;;;;;;;;;;;;;5039516;28;28496;-93
2022/04/10 14:50:19;;;;;;;;;;;;;;;;;;5029793;28;28344;-95
2022/04/10 14:52:44;;;;;;;;;;;;;;;;;;5025901;28;28673;-95
2022/04/10 14:55:09;;;;;;;;;;;;;;;;;;5024057;28;29957;-94
2022/04/10 14:57:34;;;;;;;;;;;;;;;;;;5023457;28;29534;-95
2022/04/10 14:59:59;;;;;;;;;;;;;;;;;;5040686;28;28459;-93
2022/04/10 15:02:24;;;;;;;;;;;;;;;;;;5022435;28;28599;-93
2022/04/10 15:04:49;;;;;;;;;;;;;;;;;;5022083;28;29961;-93
2022/04/10 15:07:14;;;;;;;;;;;;;;;;;;5038834;28;28253;-93
2022/04/10 15:09:40;;;;;;;;;;;;;;;;;;5020578;28;28289;-92
2022/04/10 15:12:07;;;;;;;;;;;;;;;;;;5021477;28;28790;-93
2022/04/10 15:14:32;;;;;;;;;;;;;;;;;;5040301;28;28647;-94
2022/04/10 15:16:57;;;;;;;;;;;;;;;;;;5021943;28;29452;-94
2022/04/10 15:19:22;;;;;;;;;;;;;;;;;;5022707;28;28449;-95
2022/04/10 15:21:47;;;;;;;;;;;;;;;;;;5025550;28;28525;-95
2022/04/10 15:24:12;;;;;;;;;;;;;;;;;;5030269;28;30971;-94
2022/04/10 15:26:45;;;;;;;;;;;;;;;;;;5024535;28;28567;-95
2022/04/10 15:29:10;;;;;;;;;;;;;;;;;;5023872;28;28274;-94
2022/04/10 15:31:35;;;;;;;;;;;;;;;;;;5024102;28;27922;-95
2022/04/10 15:34:00;;;;;;;;;;;;;;;;;;5024150;28;30260;-94
2022/04/10 15:36:26;;;;;;;;;;;;;;;;;;5023951;28;28543;-93
2022/04/10 15:38:51;;;;;;;;;;;;;;;;;;5041908;28;28212;-92
2022/04/10 15:41:16;;;;;;;;;;;;;;;;;;5023767;28;28472;-93
2022/04/10 15:43:41;;;;;;;;;;;;;;;;;;5025087;28;29991;-94
2022/04/10 15:46:06;;;;;;;;;;;;;;;;;;5026480;28;29308;-95
2022/04/10 15:48:32;;;;;;;;;;;;;;;;;;5027507;28;28399;-93
2022/04/10 15:50:57;;;;;;;;;;;;;;;;;;5024291;28;28453;-94
2022/04/10 15:53:22;;;;;;;;;;;;;;;;;;5024787;28;29887;-93
2022/04/10 15:55:48;;;;;;;;;;;;;;;;;;5025180;28;28482;-94
2022/04/10 15:58:17;;;;;;;;;;;;;;;;;;5024875;28;27944;-94
2022/04/10 16:00:42;;;;;;;;;;;;;;;;;;5025556;28;28385;-93
2022/04/10 16:03:07;;;;;;;;;;;;;;;;;;5033437;28;28493;-94
2022/04/10 16:05:32;;;;;;;;;;;;;;;;;;5028908;28;28497;-94
2022/04/10 16:07:59;;;;;;;;;;;;;;;;;;5026803;28;27934;-94
2022/04/10 16:10:25;;;;;;;;;;;;;;;;;;5027375;28;28516;-95
2022/04/10 16:12:50;;;;;;;;;;;;;;;;;;5027461;28;29970;-95
2022/04/10 16:15:15;;;;;;;;;;;;;;;;;;5027174;28;28341;-95
2022/04/10 16:17:40;;;;;;;;;;;;;;;;;;5026335;28;28526;-95
2022/04/10 16:22:41;;;;;;;;;;;;;;;;;;5350381;23;28395;-96
2022/04/10 16:30:21;;;;;;;;;;;;;;;;;;5028394;28;28557;-95
2022/04/10 16:32:46;;;;;;;;;;;;;;;;;;5026931;28;28432;-94
2022/04/10 16:35:18;;;;;;;;;;;;;;;;;;5024276;28;27806;-94
2022/04/10 16:37:43;;;;;;;;;;;;;;;;;;5007869;28;28306;-95
2022/04/10 16:40:08;;;;;;;;;;;;;;;;;;5024388;28;28570;-94
2022/04/10 16:42:33;;;;;;;;;;;;;;;;;;5023698;28;28611;-95
2022/04/10 16:44:59;;;;;;;;;;;;;;;;;;5021774;28;28392;-94
2022/04/10 16:47:24;;;;;;;;;;;;;;;;;;5000625;28;28417;-94
2022/04/10 16:49:49;;;;;;;;;;;;;;;;;;5016700;28;28334;-94
2022/04/10 16:52:14;;;;;;;;;;;;;;;;;;5025031;28;28467;-96
2022/04/10 16:54:51;;;;;;;;;;;;;;;;;;5026520;28;28325;-96
2022/04/10 16:57:16;;;;;;;;;;;;;;;;;;5024852;28;27705;-93
2022/04/10 16:59:44;;;;;;;;;;;;;;;;;;5022505;28;28412;-93
2022/04/10 17:02:09;;;;;;;;;;;;;;;;;;5003903;28;30867;-96